createdAt,value
2017-02-06T00:00:04.803Z,0
2017-02-06T00:00:45.317Z,0
2017-02-06T00:01:25.773Z,0
2017-02-06T00:02:06.281Z,0
2017-02-06T00:02:46.763Z,0
2017-02-06T00:03:27.283Z,0
2017-02-06T00:04:07.689Z,0
2017-02-06T00:04:48.183Z,0
2017-02-06T00:05:28.644Z,0
2017-02-06T00:06:09.125Z,0
2017-02-06T00:06:49.652Z,0
2017-02-06T00:07:30.154Z,0
2017-02-06T00:08:10.629Z,0
2017-02-06T00:08:51.221Z,0
2017-02-06T00:09:31.692Z,0
2017-02-06T00:10:12.219Z,0
2017-02-06T00:10:52.648Z,0
2017-02-06T00:11:33.210Z,0
2017-02-06T00:12:13.642Z,0
2017-02-06T00:12:54.148Z,0
2017-02-06T00:13:34.653Z,0
2017-02-06T00:14:15.143Z,0
2017-02-06T00:14:55.658Z,0
2017-02-06T00:15:36.122Z,0
2017-02-06T00:16:16.638Z,0
2017-02-06T00:16:57.136Z,0
2017-02-06T00:17:37.670Z,0
2017-02-06T00:18:18.133Z,0
2017-02-06T00:18:58.568Z,0
2017-02-06T00:19:39.100Z,0
2017-02-06T00:20:19.601Z,0
2017-02-06T00:21:00.027Z,0
2017-02-06T00:21:40.530Z,0
2017-02-06T00:22:21.026Z,0
2017-02-06T00:23:01.571Z,0
2017-02-06T00:23:42.006Z,0
2017-02-06T00:24:22.521Z,0
2017-02-06T00:25:02.999Z,0
2017-02-06T00:25:43.522Z,0
2017-02-06T00:26:24.034Z,0
2017-02-06T00:27:04.535Z,0
2017-02-06T00:27:45.198Z,0
2017-02-06T00:28:25.705Z,0
2017-02-06T00:29:06.221Z,0
2017-02-06T00:29:46.818Z,0
2017-02-06T00:30:27.337Z,0
2017-02-06T00:31:07.817Z,0
2017-02-06T00:31:48.352Z,0
2017-02-06T00:32:28.805Z,0
2017-02-06T00:33:10.182Z,0
2017-02-06T00:33:49.836Z,0
2017-02-06T00:34:31.175Z,0
2017-02-06T00:35:12.674Z,0
2017-02-06T00:35:58.230Z,0
2017-02-06T00:36:39.698Z,0
2017-02-06T00:37:21.172Z,0
2017-02-06T00:38:05.675Z,0
2017-02-06T00:38:51.219Z,0
2017-02-06T00:39:30.731Z,0
2017-02-06T00:40:11.226Z,0
2017-02-06T00:40:51.715Z,0
2017-02-06T00:41:32.295Z,0
2017-02-06T00:42:12.720Z,0
2017-02-06T00:42:53.236Z,0
2017-02-06T00:43:34.377Z,0
2017-02-06T00:44:15.675Z,0
2017-02-06T00:44:56.792Z,0
2017-02-06T00:45:39.798Z,0
2017-02-06T00:46:19.959Z,0
2017-02-06T00:47:02.680Z,0
2017-02-06T00:47:44.672Z,0
2017-02-06T00:48:26.679Z,0
2017-02-06T00:49:07.608Z,0
2017-02-06T00:49:48.689Z,0
2017-02-06T00:50:30.230Z,0
2017-02-06T00:51:10.746Z,0
2017-02-06T00:51:50.967Z,0
2017-02-06T00:52:31.416Z,0
2017-02-06T00:53:13.181Z,0
2017-02-06T00:53:55.672Z,0
2017-02-06T00:54:39.686Z,0
2017-02-06T00:55:21.675Z,0
2017-02-06T00:56:07.175Z,0
2017-02-06T00:56:52.692Z,0
2017-02-06T00:57:33.182Z,0
2017-02-06T00:58:17.182Z,0
2017-02-06T00:59:05.685Z,0
2017-02-06T00:59:47.192Z,0
2017-02-06T01:00:36.693Z,0
2017-02-06T01:01:18.190Z,0
2017-02-06T01:02:00.177Z,0
2017-02-06T01:02:43.679Z,0
2017-02-06T01:03:25.678Z,0
2017-02-06T01:04:07.695Z,0
2017-02-06T01:15:41.505Z,0
2017-02-06T01:16:22.086Z,0
2017-02-06T01:17:02.545Z,0
2017-02-06T01:17:42.960Z,0
2017-02-06T01:18:23.479Z,0
2017-02-06T01:19:03.962Z,0
2017-02-06T01:19:44.475Z,0
2017-02-06T01:20:24.975Z,0
2017-02-06T01:21:05.502Z,0
2017-02-06T01:21:45.946Z,0
2017-02-06T01:22:26.448Z,0
2017-02-06T01:23:06.980Z,0
2017-02-06T01:23:47.439Z,0
2017-02-06T01:24:27.966Z,0
2017-02-06T01:25:08.503Z,0
2017-02-06T01:25:49.010Z,0
2017-02-06T01:28:22.635Z,0
2017-02-06T01:29:03.137Z,0
2017-02-06T01:29:43.658Z,0
2017-02-06T01:30:24.215Z,0
2017-02-06T01:31:04.659Z,0
2017-02-06T01:31:45.193Z,0
2017-02-06T01:32:25.679Z,0
2017-02-06T01:33:06.164Z,0
2017-02-06T01:33:46.665Z,0
2017-02-06T01:34:27.161Z,0
2017-02-06T01:35:07.660Z,0
2017-02-06T01:35:48.195Z,0
2017-02-06T01:36:28.627Z,0
2017-02-06T01:37:09.162Z,0
2017-02-06T01:37:49.617Z,0
2017-02-06T01:38:30.122Z,0
2017-02-06T01:39:10.587Z,0
2017-02-06T01:39:51.075Z,0
2017-02-06T01:40:31.568Z,0
2017-02-06T01:41:12.063Z,0
2017-02-06T01:41:52.523Z,0
2017-02-06T01:42:33.025Z,0
2017-02-06T01:43:13.547Z,0
2017-02-06T01:43:54.009Z,0
2017-02-06T01:44:34.472Z,0
2017-02-06T01:45:14.967Z,0
2017-02-06T01:45:55.462Z,0
2017-02-06T01:46:36.017Z,0
2017-02-06T01:47:16.498Z,0
2017-02-06T01:47:56.973Z,0
2017-02-06T01:48:37.495Z,0
2017-02-06T01:49:17.959Z,0
2017-02-06T01:49:58.469Z,0
2017-02-06T01:50:38.913Z,0
2017-02-06T01:51:19.454Z,0
2017-02-06T01:51:59.946Z,0
2017-02-06T01:52:40.416Z,0
2017-02-06T01:53:21.085Z,0
2017-02-06T01:54:01.510Z,0
2017-02-06T01:54:42.056Z,0
2017-02-06T01:55:22.599Z,0
2017-02-06T01:56:03.058Z,0
2017-02-06T01:56:43.560Z,0
2017-02-06T01:57:24.044Z,0
2017-02-06T01:58:04.536Z,0
2017-02-06T01:58:45.012Z,0
2017-02-06T01:59:25.515Z,0
2017-02-06T02:00:05.996Z,0
2017-02-06T02:00:46.510Z,0
2017-02-06T02:01:26.996Z,0
2017-02-06T02:02:07.512Z,0
2017-02-06T02:02:47.993Z,0
2017-02-06T02:03:28.433Z,0
2017-02-06T02:04:08.953Z,0
2017-02-06T02:04:49.463Z,0
2017-02-06T02:05:29.947Z,0
2017-02-06T02:06:10.414Z,0
2017-02-06T02:06:50.884Z,0
2017-02-06T02:07:31.396Z,0
2017-02-06T02:08:11.893Z,0
2017-02-06T02:08:52.371Z,0
2017-02-06T02:09:32.850Z,0
2017-02-06T02:10:13.379Z,0
2017-02-06T02:10:53.891Z,0
2017-02-06T02:11:34.324Z,0
2017-02-06T02:12:14.790Z,0
2017-02-06T02:12:55.319Z,0
2017-02-06T02:13:35.769Z,0
2017-02-06T02:14:16.293Z,0
2017-02-06T02:14:56.770Z,0
2017-02-06T02:15:37.412Z,0
2017-02-06T02:16:17.865Z,0
2017-02-06T02:16:58.399Z,0
2017-02-06T02:17:38.881Z,0
2017-02-06T02:18:19.384Z,0
2017-02-06T02:18:59.864Z,0
2017-02-06T02:19:40.368Z,0
2017-02-06T02:20:20.877Z,0
2017-02-06T02:21:01.382Z,0
2017-02-06T02:21:41.876Z,0
2017-02-06T02:22:22.379Z,0
2017-02-06T02:23:02.899Z,0
2017-02-06T02:23:43.393Z,0
2017-02-06T02:24:23.857Z,0
2017-02-06T02:25:04.338Z,0
2017-02-06T02:25:44.878Z,0
2017-02-06T02:26:25.311Z,0
2017-02-06T02:27:05.817Z,0
2017-02-06T02:27:46.307Z,0
2017-02-06T02:28:26.804Z,0
2017-02-06T02:29:07.296Z,0
2017-02-06T02:29:47.778Z,0
2017-02-06T02:30:28.299Z,0
2017-02-06T02:31:08.816Z,0
2017-02-06T02:31:49.269Z,0
2017-02-06T02:32:29.763Z,0
2017-02-06T02:33:10.272Z,0
2017-02-06T02:33:50.782Z,0
2017-02-06T02:34:31.357Z,0
2017-02-06T02:35:11.866Z,0
2017-02-06T02:35:52.374Z,0
2017-02-06T02:36:32.827Z,0
2017-02-06T02:37:13.284Z,0
2017-02-06T02:37:53.802Z,0
2017-02-06T02:38:34.311Z,0
2017-02-06T02:39:14.826Z,0
2017-02-06T02:39:55.306Z,0
2017-02-06T02:40:35.800Z,0
2017-02-06T02:41:16.285Z,0
2017-02-06T02:41:56.782Z,0
2017-02-06T02:42:37.260Z,0
2017-02-06T02:43:17.756Z,0
2017-02-06T02:43:58.263Z,0
2017-02-06T02:44:38.767Z,0
2017-02-06T02:45:19.276Z,0
2017-02-06T02:45:59.780Z,0
2017-02-06T02:46:40.266Z,0
2017-02-06T02:47:20.775Z,0
2017-02-06T02:48:01.269Z,0
2017-02-06T02:48:41.775Z,0
2017-02-06T02:49:22.251Z,0
2017-02-06T02:50:02.766Z,0
2017-02-06T02:50:43.260Z,0
2017-02-06T02:51:23.746Z,0
2017-02-06T02:52:04.270Z,0
2017-02-06T02:52:44.715Z,0
2017-02-06T02:53:25.234Z,0
2017-02-06T02:54:05.742Z,0
2017-02-06T02:54:46.234Z,0
2017-02-06T02:55:26.694Z,0
2017-02-06T02:56:07.218Z,0
2017-02-06T02:56:47.723Z,0
2017-02-06T02:57:28.257Z,0
2017-02-06T02:58:08.772Z,0
2017-02-06T02:58:49.254Z,0
2017-02-06T02:59:29.745Z,0
2017-02-06T03:00:10.233Z,0
2017-02-06T03:00:50.713Z,0
2017-02-06T03:01:31.223Z,0
2017-02-06T03:02:11.732Z,0
2017-02-06T03:02:52.222Z,0
2017-02-06T03:03:32.710Z,0
2017-02-06T03:04:13.199Z,0
2017-02-06T03:04:53.667Z,0
2017-02-06T03:05:34.167Z,0
2017-02-06T03:06:14.665Z,0
2017-02-06T03:06:55.131Z,0
2017-02-06T03:07:35.616Z,0
2017-02-06T03:08:16.162Z,0
2017-02-06T03:08:56.630Z,0
2017-02-06T03:09:37.143Z,0
2017-02-06T03:10:17.613Z,0
2017-02-06T03:10:58.169Z,0
2017-02-06T03:11:38.555Z,0
2017-02-06T03:12:19.059Z,0
2017-02-06T03:12:59.548Z,0
2017-02-06T03:13:40.037Z,0
2017-02-06T03:14:20.512Z,0
2017-02-06T03:15:01.027Z,0
2017-02-06T03:15:41.730Z,0
2017-02-06T03:16:22.184Z,0
2017-02-06T03:17:02.724Z,0
2017-02-06T03:17:43.155Z,0
2017-02-06T03:18:23.690Z,0
2017-02-06T03:19:04.229Z,0
2017-02-06T03:19:44.697Z,0
2017-02-06T03:20:25.216Z,0
2017-02-06T03:21:05.704Z,0
2017-02-06T03:21:46.177Z,0
2017-02-06T03:22:26.653Z,0
2017-02-06T03:23:07.150Z,0
2017-02-06T03:23:47.646Z,0
2017-02-06T03:24:28.134Z,0
2017-02-06T03:25:08.603Z,0
2017-02-06T03:25:49.091Z,0
2017-02-06T03:26:29.613Z,0
2017-02-06T03:27:10.120Z,0
2017-02-06T03:27:50.602Z,0
2017-02-06T03:28:31.081Z,0
2017-02-06T03:29:11.562Z,0
2017-02-06T03:29:52.045Z,0
2017-02-06T03:30:32.566Z,0
2017-02-06T03:31:13.022Z,0
2017-02-06T03:31:53.511Z,0
2017-02-06T03:32:33.997Z,0
2017-02-06T03:33:14.557Z,0
2017-02-06T03:33:55.010Z,0
2017-02-06T03:34:35.507Z,0
2017-02-06T03:35:16.050Z,0
2017-02-06T03:35:56.484Z,0
2017-02-06T03:36:40.909Z,0
2017-02-06T03:37:25.182Z,0
2017-02-06T03:38:05.686Z,0
2017-02-06T03:38:46.188Z,0
2017-02-06T03:39:26.672Z,0
2017-02-06T03:40:07.193Z,0
2017-02-06T03:40:47.693Z,0
2017-02-06T03:41:28.197Z,0
2017-02-06T03:42:08.706Z,0
2017-02-06T03:42:49.202Z,0
2017-02-06T03:43:29.705Z,0
2017-02-06T03:44:10.207Z,0
2017-02-06T03:44:50.693Z,0
2017-02-06T03:45:31.237Z,0
2017-02-06T03:46:11.678Z,0
2017-02-06T03:46:52.150Z,0
2017-02-06T03:47:32.642Z,0
2017-02-06T03:48:18.037Z,0
2017-02-06T03:48:58.525Z,0
2017-02-06T03:49:39.018Z,0
2017-02-06T03:50:19.479Z,0
2017-02-06T03:50:59.980Z,0
2017-02-06T03:51:40.473Z,0
2017-02-06T03:52:20.952Z,0
2017-02-06T03:53:01.463Z,0
2017-02-06T03:53:41.953Z,0
2017-02-06T03:54:22.475Z,0
2017-02-06T03:55:02.961Z,0
2017-02-06T03:55:43.454Z,0
2017-02-06T03:56:23.941Z,0
2017-02-06T03:57:04.465Z,0
2017-02-06T03:57:44.930Z,0
2017-02-06T03:58:25.491Z,0
2017-02-06T03:59:05.961Z,0
2017-02-06T03:59:46.477Z,0
2017-02-06T04:00:26.945Z,0
2017-02-06T04:01:07.407Z,0
2017-02-06T04:01:47.881Z,0
2017-02-06T04:02:28.387Z,0
2017-02-06T04:03:08.860Z,0
2017-02-06T04:03:49.400Z,0
2017-02-06T04:04:29.922Z,0
2017-02-06T04:05:10.389Z,0
2017-02-06T04:05:50.892Z,0
2017-02-06T04:06:31.348Z,0
2017-02-06T04:07:11.827Z,0
2017-02-06T04:07:52.415Z,0
2017-02-06T04:08:32.832Z,0
2017-02-06T04:09:13.325Z,0
2017-02-06T04:09:53.838Z,0
2017-02-06T04:10:34.298Z,0
2017-02-06T04:11:14.803Z,0
2017-02-06T04:11:55.276Z,0
2017-02-06T04:12:35.789Z,0
2017-02-06T04:13:16.416Z,0
2017-02-06T04:13:56.817Z,0
2017-02-06T04:14:37.291Z,0
2017-02-06T04:15:17.843Z,0
2017-02-06T04:15:58.315Z,0
2017-02-06T04:16:38.789Z,0
2017-02-06T04:17:19.266Z,0
2017-02-06T04:17:59.781Z,0
2017-02-06T04:18:40.276Z,0
2017-02-06T04:19:20.788Z,0
2017-02-06T04:20:01.242Z,0
2017-02-06T04:20:41.731Z,0
2017-02-06T04:21:22.228Z,0
2017-02-06T04:22:02.732Z,0
2017-02-06T04:22:43.252Z,0
2017-02-06T04:23:23.717Z,0
2017-02-06T04:24:04.264Z,0
2017-02-06T04:24:44.754Z,0
2017-02-06T04:25:25.241Z,0
2017-02-06T04:26:05.759Z,0
2017-02-06T04:26:46.229Z,0
2017-02-06T04:27:26.917Z,0
2017-02-06T04:28:07.428Z,0
2017-02-06T04:28:47.918Z,0
2017-02-06T04:29:28.415Z,0
2017-02-06T04:30:08.900Z,0
2017-02-06T04:30:49.427Z,0
2017-02-06T04:31:29.905Z,0
2017-02-06T04:32:10.445Z,0
2017-02-06T04:32:50.909Z,0
2017-02-06T04:33:31.440Z,0
2017-02-06T04:34:11.888Z,0
2017-02-06T04:34:52.329Z,0
2017-02-06T04:35:32.835Z,0
2017-02-06T04:36:13.350Z,0
2017-02-06T04:36:53.827Z,0
2017-02-06T04:37:34.309Z,0
2017-02-06T04:38:14.827Z,0
2017-02-06T04:38:55.320Z,0
2017-02-06T04:39:35.800Z,0
2017-02-06T04:40:16.311Z,0
2017-02-06T04:40:56.782Z,0
2017-02-06T04:41:37.268Z,0
2017-02-06T04:42:17.792Z,0
2017-02-06T04:42:58.297Z,0
2017-02-06T04:43:38.743Z,0
2017-02-06T04:44:19.265Z,0
2017-02-06T04:44:59.731Z,0
2017-02-06T04:45:40.288Z,0
2017-02-06T04:46:20.775Z,0
2017-02-06T04:47:01.264Z,0
2017-02-06T04:47:41.725Z,0
2017-02-06T04:48:22.270Z,0
2017-02-06T04:49:02.743Z,0
2017-02-06T04:49:43.259Z,0
2017-02-06T04:50:23.724Z,0
2017-02-06T04:51:04.263Z,0
2017-02-06T04:51:44.710Z,0
2017-02-06T04:52:25.194Z,0
2017-02-06T04:53:05.690Z,0
2017-02-06T04:53:46.213Z,0
2017-02-06T04:54:26.704Z,0
2017-02-06T04:55:07.185Z,0
2017-02-06T04:55:47.696Z,0
2017-02-06T04:56:28.152Z,0
2017-02-06T04:57:08.690Z,0
2017-02-06T04:57:49.255Z,0
2017-02-06T04:58:29.787Z,0
2017-02-06T04:59:11.993Z,0
2017-02-06T04:59:52.466Z,0
2017-02-06T05:00:32.978Z,0
2017-02-06T05:01:13.468Z,0
2017-02-06T05:01:54.494Z,0
2017-02-06T05:02:34.485Z,0
2017-02-06T05:03:14.951Z,0
2017-02-06T05:03:55.480Z,0
2017-02-06T05:04:35.970Z,0
2017-02-06T05:05:17.046Z,0
2017-02-06T05:05:57.579Z,0
2017-02-06T05:06:38.102Z,0
2017-02-06T05:07:18.532Z,0
2017-02-06T05:07:59.075Z,0
2017-02-06T05:08:39.545Z,0
2017-02-06T05:09:20.041Z,0
2017-02-06T05:10:00.511Z,0
2017-02-06T05:10:41.041Z,0
2017-02-06T05:11:21.585Z,0
2017-02-06T05:12:02.532Z,0
2017-02-06T05:12:42.989Z,0
2017-02-06T05:13:23.595Z,0
2017-02-06T05:14:04.122Z,0
2017-02-06T05:14:44.590Z,0
2017-02-06T05:15:25.993Z,0
2017-02-06T05:16:05.605Z,0
2017-02-06T05:16:46.998Z,0
2017-02-06T05:17:26.567Z,0
2017-02-06T05:18:07.059Z,0
2017-02-06T05:18:47.657Z,0
2017-02-06T05:19:28.998Z,0
2017-02-06T05:20:09.560Z,0
2017-02-06T05:20:50.716Z,0
2017-02-06T05:21:31.224Z,0
2017-02-06T05:24:11.273Z,0
2017-02-06T05:24:51.768Z,0
2017-02-06T05:25:32.256Z,0
2017-02-06T05:26:14.082Z,0
2017-02-06T05:26:54.515Z,0
2017-02-06T05:27:35.023Z,0
2017-02-06T05:28:15.526Z,0
2017-02-06T05:28:56.619Z,0
2017-02-06T05:29:37.094Z,0
2017-02-06T05:30:18.089Z,0
2017-02-06T05:30:58.594Z,0
2017-02-06T05:31:39.083Z,0
2017-02-06T05:32:20.084Z,0
2017-02-06T05:33:00.606Z,0
2017-02-06T05:33:40.159Z,0
2017-02-06T05:34:21.592Z,0
2017-02-06T05:35:01.581Z,0
2017-02-06T05:35:42.082Z,0
2017-02-06T05:36:24.084Z,0
2017-02-06T05:37:04.587Z,0
2017-02-06T05:37:44.573Z,0
2017-02-06T05:38:25.076Z,0
2017-02-06T05:39:06.592Z,0
2017-02-06T05:39:46.152Z,0
2017-02-06T05:40:28.580Z,0
2017-02-06T05:41:08.612Z,0
2017-02-06T05:41:51.083Z,0
2017-02-06T05:42:31.274Z,0
2017-02-06T05:43:13.083Z,0
2017-02-06T05:43:54.584Z,0
2017-02-06T05:44:37.087Z,0
2017-02-06T05:45:18.089Z,0
2017-02-06T05:46:00.082Z,0
2017-02-06T05:46:39.230Z,0
2017-02-06T05:47:22.588Z,0
2017-02-06T05:48:03.314Z,0
2017-02-06T05:48:43.758Z,0
2017-02-06T05:49:24.295Z,0
2017-02-06T05:50:04.709Z,0
2017-02-06T05:50:46.089Z,0
2017-02-06T05:51:26.445Z,0
2017-02-06T05:52:06.920Z,0
2017-02-06T05:52:48.584Z,0
2017-02-06T05:53:30.094Z,0
2017-02-06T05:54:09.907Z,0
2017-02-06T05:54:51.611Z,0
2017-02-06T05:55:33.097Z,0
2017-02-06T05:56:15.091Z,0
2017-02-06T05:56:58.100Z,0
2017-02-06T05:57:40.586Z,0
2017-02-06T05:58:24.086Z,0
2017-02-06T05:59:10.086Z,0
2017-02-06T05:59:50.528Z,0
2017-02-06T06:00:31.026Z,0
2017-02-06T06:01:11.517Z,0
2017-02-06T06:01:52.053Z,0
2017-02-06T06:02:32.533Z,0
2017-02-06T06:03:13.036Z,0
2017-02-06T06:03:53.522Z,0
2017-02-06T06:04:34.021Z,0
2017-02-06T06:05:14.542Z,0
2017-02-06T06:05:55.073Z,0
2017-02-06T06:06:35.577Z,0
2017-02-06T06:07:16.079Z,0
2017-02-06T06:07:56.599Z,0
2017-02-06T06:08:37.057Z,0
2017-02-06T06:09:17.601Z,0
2017-02-06T06:09:58.124Z,0
2017-02-06T06:10:38.591Z,0
2017-02-06T06:11:19.111Z,0
2017-02-06T06:11:59.596Z,0
2017-02-06T06:12:40.147Z,0
2017-02-06T06:13:20.543Z,0
2017-02-06T06:14:01.035Z,0
2017-02-06T06:14:41.529Z,0
2017-02-06T06:15:22.076Z,0
2017-02-06T06:16:02.548Z,0
2017-02-06T06:16:43.024Z,0
2017-02-06T06:17:23.546Z,0
2017-02-06T06:18:04.050Z,0
2017-02-06T06:18:44.645Z,0
2017-02-06T06:19:25.148Z,0
2017-02-06T06:20:05.638Z,0
2017-02-06T06:20:46.142Z,0
2017-02-06T06:21:27.609Z,0
2017-02-06T06:22:07.838Z,0
2017-02-06T06:22:48.877Z,0
2017-02-06T06:23:30.186Z,0
2017-02-06T06:24:10.677Z,0
2017-02-06T06:24:51.169Z,0
2017-02-06T06:25:31.674Z,0
2017-02-06T06:26:13.101Z,0
2017-02-06T06:26:52.734Z,0
2017-02-06T06:27:33.211Z,0
2017-02-06T06:28:13.744Z,0
2017-02-06T06:28:54.230Z,0
2017-02-06T06:29:34.739Z,0
2017-02-06T06:30:15.211Z,0
2017-02-06T06:30:56.608Z,0
2017-02-06T06:31:36.289Z,0
2017-02-06T06:32:16.758Z,0
2017-02-06T06:32:57.259Z,0
2017-02-06T06:33:37.773Z,0
2017-02-06T06:34:18.263Z,0
2017-02-06T06:34:58.768Z,0
2017-02-06T06:35:39.288Z,0
2017-02-06T06:36:19.726Z,0
2017-02-06T06:37:01.607Z,0
2017-02-06T06:37:41.225Z,0
2017-02-06T06:38:23.162Z,0
2017-02-06T06:39:04.452Z,0
2017-02-06T06:39:45.549Z,0
2017-02-06T06:40:26.610Z,0
2017-02-06T06:41:08.611Z,0
2017-02-06T06:41:48.289Z,0
2017-02-06T06:42:28.730Z,0
2017-02-06T06:43:09.221Z,0
2017-02-06T06:43:51.096Z,0
2017-02-06T06:44:31.647Z,0
2017-02-06T06:45:12.052Z,0
2017-02-06T06:45:52.570Z,0
2017-02-06T06:46:33.610Z,0
2017-02-06T06:47:13.547Z,0
2017-02-06T06:47:54.047Z,0
2017-02-06T06:48:35.385Z,0
2017-02-06T06:49:15.855Z,0
2017-02-06T06:49:58.613Z,0
2017-02-06T06:50:41.768Z,0
2017-02-06T06:51:23.105Z,0
2017-02-06T06:52:03.605Z,0
2017-02-06T06:52:43.338Z,0
2017-02-06T06:53:23.795Z,0
2017-02-06T06:54:05.110Z,0
2017-02-06T06:54:45.759Z,0
2017-02-06T06:55:27.112Z,0
2017-02-06T06:56:07.602Z,0
2017-02-06T06:56:48.144Z,0
2017-02-06T06:57:27.721Z,0
2017-02-06T06:58:10.602Z,5
2017-02-06T06:58:50.304Z,5
2017-02-06T06:59:33.105Z,5
2017-02-06T07:00:15.108Z,5
2017-02-06T07:00:56.114Z,5
2017-02-06T07:01:35.988Z,5
2017-02-06T07:02:18.609Z,5
2017-02-06T07:02:59.088Z,5
2017-02-06T07:03:39.566Z,5
2017-02-06T07:04:20.611Z,5
2017-02-06T07:05:01.218Z,5
2017-02-06T07:05:42.610Z,5
2017-02-06T07:06:22.391Z,5
2017-02-06T07:07:03.785Z,5
2017-02-06T07:07:44.948Z,5
2017-02-06T07:08:25.488Z,5
2017-02-06T07:09:05.967Z,5
2017-02-06T07:09:48.500Z,5
2017-02-06T07:10:30.618Z,5
2017-02-06T07:11:10.999Z,5
2017-02-06T07:11:53.112Z,5
2017-02-06T07:12:32.584Z,5
2017-02-06T07:13:14.655Z,10
2017-02-06T07:14:00.163Z,10
2017-02-06T07:14:42.625Z,10
2017-02-06T07:15:24.654Z,10
2017-02-06T07:16:04.359Z,10
2017-02-06T07:16:45.673Z,10
2017-02-06T07:17:28.303Z,10
2017-02-06T07:18:25.037Z,10
2017-02-06T07:19:08.617Z,10
2017-02-06T07:19:49.141Z,10
2017-02-06T07:20:29.605Z,10
2017-02-06T07:21:12.109Z,10
2017-02-06T07:21:55.654Z,10
2017-02-06T07:22:35.114Z,10
2017-02-06T07:23:17.610Z,10
2017-02-06T07:23:58.623Z,10
2017-02-06T07:24:40.201Z,10
2017-02-06T07:25:23.124Z,10
2017-02-06T07:26:11.116Z,10
2017-02-06T07:26:52.143Z,10
2017-02-06T07:27:33.701Z,10
2017-02-06T07:28:16.611Z,10
2017-02-06T07:28:59.119Z,15
2017-02-06T07:29:38.553Z,15
2017-02-06T07:30:23.615Z,15
2017-02-06T07:31:08.122Z,15
2017-02-06T07:31:48.622Z,15
2017-02-06T07:33:27.115Z,15
2017-02-06T07:34:07.171Z,15
2017-02-06T07:34:49.115Z,15
2017-02-06T07:35:29.635Z,15
2017-02-06T07:36:10.370Z,20
2017-02-06T07:36:53.124Z,20
2017-02-06T07:37:35.112Z,20
2017-02-06T07:38:18.645Z,20
2017-02-06T07:39:00.119Z,20
2017-02-06T07:39:43.617Z,20
2017-02-06T07:40:29.119Z,25
2017-02-06T07:41:12.111Z,25
2017-02-06T07:41:52.646Z,25
2017-02-06T07:42:34.615Z,25
2017-02-06T07:43:15.618Z,25
2017-02-06T07:43:55.684Z,25
2017-02-06T07:44:39.615Z,30
2017-02-06T07:45:22.613Z,30
2017-02-06T07:46:09.615Z,30
2017-02-06T07:46:51.153Z,30
2017-02-06T07:47:37.624Z,30
2017-02-06T07:48:24.120Z,30
2017-02-06T07:49:06.121Z,30
2017-02-06T07:49:48.703Z,30
2017-02-06T07:50:37.116Z,30
2017-02-06T07:51:26.625Z,30
2017-02-06T07:52:09.201Z,35
2017-02-06T07:52:54.125Z,35
2017-02-06T07:53:42.628Z,35
2017-02-06T07:54:32.130Z,35
2017-02-06T07:55:16.185Z,35
2017-02-06T07:56:01.233Z,35
2017-02-06T07:56:45.619Z,40
2017-02-06T07:57:29.623Z,40
2017-02-06T07:58:13.128Z,40
2017-02-06T07:58:57.121Z,40
2017-02-06T07:59:41.197Z,40
2017-02-06T08:00:31.615Z,40
2017-02-06T08:01:14.627Z,40
2017-02-06T08:02:05.139Z,40
2017-02-06T08:02:51.126Z,40
2017-02-06T08:03:36.129Z,40
2017-02-06T08:04:19.125Z,45
2017-02-06T08:05:00.724Z,45
2017-02-06T08:05:44.577Z,45
2017-02-06T08:06:40.119Z,45
2017-02-06T08:07:27.128Z,45
2017-02-06T08:08:12.142Z,45
2017-02-06T08:08:55.636Z,45
2017-02-06T08:09:42.626Z,45
2017-02-06T08:10:39.147Z,50
2017-02-06T08:11:33.128Z,50
2017-02-06T08:13:00.637Z,50
2017-02-06T08:13:49.121Z,50
2017-02-06T08:14:37.637Z,50
2017-02-06T08:15:26.129Z,50
2017-02-06T08:16:11.131Z,55
2017-02-06T08:19:08.187Z,60
2017-02-06T08:19:54.192Z,60
2017-02-06T08:20:42.699Z,65
2017-02-06T08:23:27.793Z,65
2017-02-06T08:26:33.394Z,70
2017-02-06T08:28:47.572Z,75
2017-02-06T08:29:33.568Z,75
2017-02-06T08:30:16.075Z,75
2017-02-06T08:30:57.075Z,80
2017-02-06T08:31:39.568Z,80
2017-02-06T08:32:20.580Z,80
2017-02-06T08:33:02.082Z,85
2017-02-06T08:33:47.078Z,80
2017-02-06T08:34:27.097Z,85
2017-02-06T08:35:09.094Z,85
2017-02-06T08:35:52.075Z,85
2017-02-06T08:36:33.079Z,85
2017-02-06T08:37:24.070Z,90
2017-02-06T08:38:11.072Z,90
2017-02-06T08:38:52.081Z,90
2017-02-06T08:39:38.089Z,90
2017-02-06T08:40:23.077Z,90
2017-02-06T08:41:12.070Z,95
2017-02-06T08:41:57.569Z,95
2017-02-06T08:42:45.078Z,95
2017-02-06T08:43:27.585Z,95
2017-02-06T08:46:19.711Z,100
2017-02-06T08:47:04.211Z,100
2017-02-06T08:54:05.939Z,100
2017-02-06T08:54:54.030Z,100
2017-02-06T08:55:40.941Z,100
2017-02-06T08:56:32.967Z,100
2017-02-06T08:59:33.512Z,100
2017-02-06T09:00:19.001Z,100
2017-02-06T09:02:39.586Z,100
2017-02-06T09:08:55.372Z,100
2017-02-06T09:09:35.857Z,100
2017-02-06T09:10:16.396Z,100
2017-02-06T09:10:56.888Z,95
2017-02-06T09:11:37.402Z,95
2017-02-06T09:12:17.872Z,95
2017-02-06T09:12:58.398Z,95
2017-02-06T09:13:38.902Z,95
2017-02-06T09:14:19.368Z,95
2017-02-06T09:14:59.881Z,95
2017-02-06T09:15:40.358Z,95
2017-02-06T09:16:20.844Z,95
2017-02-06T09:17:01.363Z,95
2017-02-06T09:17:41.867Z,95
2017-02-06T09:18:22.378Z,95
2017-02-06T09:19:02.834Z,95
2017-02-06T09:19:43.348Z,100
2017-02-06T09:20:23.906Z,100
2017-02-06T09:21:04.397Z,95
2017-02-06T09:21:44.874Z,95
2017-02-06T09:22:25.342Z,95
2017-02-06T09:23:05.832Z,95
2017-02-06T09:23:46.299Z,100
2017-02-06T09:24:26.800Z,100
2017-02-06T09:25:07.275Z,100
2017-02-06T09:25:47.764Z,100
2017-02-06T09:26:28.265Z,100
2017-02-06T09:27:08.924Z,100
2017-02-06T09:27:49.426Z,100
2017-02-06T09:28:29.890Z,100
2017-02-06T09:29:10.493Z,100
2017-02-06T09:29:51.003Z,100
2017-02-06T09:30:31.542Z,100
2017-02-06T09:31:12.028Z,100
2017-02-06T09:31:52.531Z,100
2017-02-06T09:32:32.997Z,100
2017-02-06T09:33:13.522Z,100
2017-02-06T09:33:53.997Z,105
2017-02-06T09:34:34.499Z,105
2017-02-06T09:35:15.029Z,105
2017-02-06T09:35:55.557Z,105
2017-02-06T09:36:36.075Z,110
2017-02-06T09:37:16.532Z,110
2017-02-06T09:37:57.031Z,110
2017-02-06T09:38:37.481Z,110
2017-02-06T09:39:18.179Z,110
2017-02-06T09:39:58.670Z,110
2017-02-06T09:40:39.087Z,110
2017-02-06T09:41:19.563Z,110
2017-02-06T09:42:00.099Z,110
2017-02-06T09:42:40.560Z,110
2017-02-06T09:43:21.019Z,110
2017-02-06T09:44:01.523Z,110
2017-02-06T09:44:42.017Z,110
2017-02-06T09:45:22.565Z,110
2017-02-06T09:46:03.014Z,110
2017-02-06T09:46:43.498Z,115
2017-02-06T09:47:23.970Z,115
2017-02-06T09:48:04.540Z,115
2017-02-06T09:48:45.058Z,115
2017-02-06T09:49:25.554Z,115
2017-02-06T09:50:06.053Z,115
2017-02-06T09:50:46.434Z,115
2017-02-06T09:51:26.997Z,115
2017-02-06T09:52:07.424Z,115
2017-02-06T09:52:47.975Z,115
2017-02-06T09:53:28.463Z,115
2017-02-06T09:54:09.004Z,120
2017-02-06T09:54:49.433Z,115
2017-02-06T09:55:29.886Z,115
2017-02-06T09:56:10.413Z,115
2017-02-06T09:56:50.933Z,120
2017-02-06T09:57:31.337Z,120
2017-02-06T09:58:11.862Z,125
2017-02-06T09:58:52.414Z,125
2017-02-06T09:59:32.941Z,130
2017-02-06T10:00:13.427Z,130
2017-02-06T10:00:53.876Z,135
2017-02-06T10:01:34.360Z,140
2017-02-06T10:02:14.870Z,140
2017-02-06T10:02:55.388Z,140
2017-02-06T10:03:35.862Z,140
2017-02-06T10:04:16.344Z,145
2017-02-06T10:04:56.946Z,150
2017-02-06T10:05:37.429Z,150
2017-02-06T10:06:17.905Z,145
2017-02-06T10:06:58.504Z,145
2017-02-06T10:07:38.957Z,150
2017-02-06T10:08:19.449Z,150
2017-02-06T10:08:59.993Z,155
2017-02-06T10:09:40.481Z,155
2017-02-06T10:10:20.995Z,155
2017-02-06T10:11:01.490Z,155
2017-02-06T10:11:41.990Z,155
2017-02-06T10:12:22.525Z,155
2017-02-06T10:13:02.961Z,155
2017-02-06T10:13:43.446Z,155
2017-02-06T10:14:24.018Z,155
2017-02-06T10:15:04.485Z,155
2017-02-06T10:15:44.973Z,155
2017-02-06T10:16:25.586Z,155
2017-02-06T10:17:06.108Z,155
2017-02-06T10:17:46.654Z,155
2017-02-06T10:18:27.111Z,155
2017-02-06T10:19:07.611Z,155
2017-02-06T10:19:48.175Z,155
2017-02-06T10:20:28.629Z,155
2017-02-06T10:21:09.166Z,155
2017-02-06T10:21:49.623Z,155
2017-02-06T10:22:30.106Z,155
2017-02-06T10:23:10.602Z,155
2017-02-06T10:23:51.235Z,155
2017-02-06T10:24:31.746Z,155
2017-02-06T10:25:12.218Z,155
2017-02-06T10:25:52.950Z,155
2017-02-06T10:26:33.411Z,150
2017-02-06T10:27:13.911Z,150
2017-02-06T10:27:54.374Z,150
2017-02-06T10:28:34.930Z,150
2017-02-06T10:29:15.532Z,150
2017-02-06T10:29:55.955Z,150
2017-02-06T10:30:36.469Z,145
2017-02-06T10:31:16.962Z,145
2017-02-06T10:31:57.404Z,145
2017-02-06T10:32:38.007Z,145
2017-02-06T10:33:18.737Z,145
2017-02-06T10:33:59.234Z,145
2017-02-06T10:34:39.720Z,145
2017-02-06T10:35:20.224Z,145
2017-02-06T10:36:00.672Z,145
2017-02-06T10:36:41.232Z,150
2017-02-06T10:37:21.716Z,145
2017-02-06T10:38:02.178Z,145
2017-02-06T10:38:42.685Z,145
2017-02-06T10:39:23.205Z,155
2017-02-06T10:40:03.741Z,150
2017-02-06T10:40:44.212Z,150
2017-02-06T10:41:24.698Z,150